Aérodrome :
LOGIN :

S'inscrire | Disclaimer

   EN    FR    IT 

 










Légende :    VFR   VFR Marginal   IFR   IFR Intensif   IFR Très Intensif
Visi : 
Plafond : 
>= 8 km
>= 3000ft
5 à 8 km
1000 à 3000 ft
1500m à 5 km
500 à 1000 ft
800 à 1500m
200 à 500 ft
< 800m
< 200 ft
Symboles :   Orages  Brouillard  Fortes neiges  Fortes précipitations  Vent > 20 kt
SIGMETs :   Divers  Orages  Givrage  Turbulence  Onde Orograph.  Cendres Volcan.







- Altitude de l'aérodrome : 313 ft
- Code IATA : LEH
- Voir les cartes d'approche


LFOH - Le Havre Octeville

DERNIER METAR :
  • 222000Z AUTO 05009KT CAVOK 01/M06 Q1019

METARs EXPIRÉS :
  • 221930Z AUTO 05010KT CAVOK 02/M05 Q1019
  • 221900Z AUTO 06009KT CAVOK 01/M05 Q1019 BECMG 4000 BR
  • 221830Z AUTO 05011KT CAVOK 02/M04 Q1019 BECMG 4000 BR
  • 221800Z AUTO 05011KT CAVOK 02/M04 Q1019 BECMG 4000 BR
  • 221730Z AUTO 05011KT CAVOK 02/M03 Q1019 BECMG 4000 BR

TAF TAF LFOH
Valide du 22 à 12h jusqu'au 23 à 12h UTC


221100Z 2212/2312 04012KT 8000 NSC
BECMG 2216/2219 4000 BR
BECMG 2309/2312 8000 NSW
ATIS : +33 2 35 54 64 93
Pas de NOTAMs connus pour ce terrain.



MET'MAP, la Météo Aéronautique d'un coup d'oeil ! - Copyright ORBIFLY Décembre 2007 - Disclaimer

ORBIFLY MET'MAP TEAM :

Programmation & Développement : Alexandra Zaïnal
Conception & Développement : Baudouin d'Aumeries
Co-Programmation & Développement : Marc-Olivier Méhu
Soutien technique & logistique : Manuel Goepfert

Contact : metmap@orbifly.com




SOURCES & CREDITS :

   NOAA